createdAt,value
2019-06-26T00:00:56.683Z,29.07
2019-06-26T00:03:46.513Z,28.97
2019-06-26T00:06:36.143Z,28.85
2019-06-26T00:09:25.515Z,28.86
2019-06-26T00:12:14.830Z,28.91
2019-06-26T00:15:04.077Z,28.87
2019-06-26T00:17:52.875Z,28.83
2019-06-26T00:20:42.018Z,28.69
2019-06-26T00:23:31.354Z,28.68
2019-06-26T00:26:21.163Z,28.73
2019-06-26T00:29:10.833Z,28.67
2019-06-26T00:31:59.815Z,28.72
2019-06-26T00:34:48.785Z,28.68
2019-06-26T00:37:37.648Z,28.65
2019-06-26T00:40:27.497Z,28.44
2019-06-26T00:43:16.585Z,28.41
2019-06-26T00:46:05.717Z,28.41
2019-06-26T00:48:55.347Z,28.28
2019-06-26T00:51:44.901Z,28.07
2019-06-26T00:54:34.770Z,27.96
2019-06-26T00:57:24.713Z,28.02
2019-06-26T01:00:26.652Z,27.92
2019-06-26T01:03:06.706Z,27.63
2019-06-26T01:05:56.373Z,27.63
2019-06-26T01:08:45.652Z,27.46
2019-06-26T01:11:35.239Z,27.38
2019-06-26T01:14:24.326Z,27.52
2019-06-26T01:17:13.749Z,27.46
2019-06-26T01:20:03.239Z,27.54
2019-06-26T01:22:52.482Z,27.51
2019-06-26T01:25:41.968Z,27.32
2019-06-26T01:28:30.769Z,27.44
2019-06-26T01:31:19.531Z,27.41
2019-06-26T01:34:08.416Z,27.42
2019-06-26T01:36:57.144Z,27.34
2019-06-26T01:39:46.962Z,27.33
2019-06-26T01:42:36.104Z,27.26
2019-06-26T01:45:25.911Z,26.97
2019-06-26T01:48:15.106Z,26.95
2019-06-26T01:51:04.674Z,27.10
2019-06-26T01:53:53.781Z,26.93
2019-06-26T01:56:43.093Z,26.91
2019-06-26T01:59:32.740Z,26.95
2019-06-26T02:02:21.517Z,26.73
2019-06-26T02:05:11.169Z,26.60
2019-06-26T02:08:00.175Z,26.57
2019-06-26T02:10:49.327Z,26.59
2019-06-26T02:13:38.947Z,26.58
2019-06-26T02:16:28.430Z,26.50
2019-06-26T02:19:19.586Z,26.50
2019-06-26T02:22:08.885Z,26.44
2019-06-26T02:24:58.452Z,26.38
2019-06-26T02:27:48.228Z,26.26
2019-06-26T02:30:37.798Z,26.28
2019-06-26T02:33:27.330Z,26.13
2019-06-26T02:36:16.883Z,25.99
2019-06-26T02:39:07.562Z,25.92
2019-06-26T02:41:56.262Z,25.60
2019-06-26T02:44:53.434Z,25.60
2019-06-26T02:47:36.339Z,25.67
2019-06-26T02:50:25.142Z,25.69
2019-06-26T02:53:14.348Z,25.48
2019-06-26T02:56:03.383Z,25.35
2019-06-26T02:58:52.130Z,25.43
2019-06-26T03:01:41.195Z,25.46
2019-06-26T03:04:30.427Z,25.43
2019-06-26T03:07:19.740Z,25.39
2019-06-26T03:10:09.032Z,25.51
2019-06-26T03:12:58.427Z,25.37
2019-06-26T03:15:50.463Z,25.31
2019-06-26T03:18:39.116Z,25.27
2019-06-26T03:21:28.236Z,24.97
2019-06-26T03:24:18.226Z,25.03
2019-06-26T03:27:09.096Z,25.05
2019-06-26T03:29:59.009Z,25.17
2019-06-26T03:32:48.297Z,25.22
2019-06-26T03:35:40.642Z,24.93
2019-06-26T03:38:29.146Z,24.99
2019-06-26T03:41:18.692Z,24.99
2019-06-26T03:44:07.926Z,24.87
2019-06-26T03:46:57.544Z,25.03
2019-06-26T03:49:47.457Z,25.16
2019-06-26T03:52:37.401Z,24.99
2019-06-26T03:55:27.050Z,25.14
2019-06-26T03:58:16.707Z,25.06
2019-06-26T04:01:06.416Z,25.14
2019-06-26T04:03:57.491Z,25.09
2019-06-26T04:06:47.236Z,25.27
2019-06-26T04:09:36.218Z,25.41
2019-06-26T04:12:25.225Z,25.30
2019-06-26T04:15:14.964Z,25.31
2019-06-26T04:18:04.242Z,25.63
2019-06-26T04:20:53.878Z,25.64
2019-06-26T04:23:43.157Z,25.43
2019-06-26T04:26:32.715Z,25.32
2019-06-26T04:29:22.427Z,25.30
2019-06-26T04:32:11.578Z,25.09
2019-06-26T04:35:00.961Z,25.27
2019-06-26T04:37:49.954Z,25.28
2019-06-26T04:40:38.968Z,25.10
2019-06-26T04:43:27.977Z,25.13
2019-06-26T04:46:17.555Z,25.24
2019-06-26T04:49:06.687Z,25.33
2019-06-26T04:51:56.244Z,25.17
2019-06-26T04:54:45.859Z,25.16
2019-06-26T04:57:35.736Z,25.36
2019-06-26T05:00:25.091Z,25.31
2019-06-26T05:03:14.399Z,25.29
2019-06-26T05:06:03.836Z,25.13
2019-06-26T05:08:52.866Z,25.28
2019-06-26T05:11:42.184Z,25.11
2019-06-26T05:14:30.922Z,25.30
2019-06-26T05:17:20.159Z,25.33
2019-06-26T05:20:10.059Z,25.39
2019-06-26T05:22:59.124Z,25.41
2019-06-26T05:25:49.185Z,25.46
2019-06-26T05:28:38.057Z,25.69
2019-06-26T05:31:27.754Z,25.43
2019-06-26T05:34:17.315Z,25.37
2019-06-26T05:37:06.812Z,26.00
2019-06-26T05:39:56.152Z,25.72
2019-06-26T05:42:45.653Z,25.73
2019-06-26T05:45:35.560Z,25.57
2019-06-26T05:48:25.324Z,25.65
2019-06-26T05:51:14.696Z,25.53
2019-06-26T05:54:03.699Z,25.45
2019-06-26T05:56:53.354Z,25.56
2019-06-26T05:59:43.111Z,25.45
2019-06-26T06:02:32.913Z,25.44
2019-06-26T06:05:22.456Z,25.53
2019-06-26T06:08:11.982Z,25.36
2019-06-26T06:11:01.157Z,25.35
2019-06-26T06:13:50.668Z,25.46
2019-06-26T06:16:47.234Z,25.43
2019-06-26T06:19:30.817Z,25.55
2019-06-26T06:22:20.417Z,25.47
2019-06-26T06:25:10.138Z,25.21
2019-06-26T06:27:59.624Z,25.10
2019-06-26T06:30:49.060Z,25.32
2019-06-26T06:33:38.449Z,24.91
2019-06-26T06:36:27.284Z,25.02
2019-06-26T06:39:16.529Z,25.03
2019-06-26T06:42:06.325Z,25.37
2019-06-26T06:44:55.956Z,25.20
2019-06-26T06:47:45.713Z,24.92
2019-06-26T06:50:35.109Z,25.30
2019-06-26T06:53:24.468Z,25.12
2019-06-26T06:56:13.867Z,25.14
2019-06-26T06:59:03.313Z,25.20
2019-06-26T07:01:53.161Z,25.23
2019-06-26T07:04:42.740Z,25.16
2019-06-26T07:07:31.808Z,25.24
2019-06-26T07:10:21.671Z,25.37
2019-06-26T07:13:11.454Z,25.26
2019-06-26T07:16:00.716Z,25.29
2019-06-26T07:18:50.267Z,25.25
2019-06-26T07:21:39.563Z,24.85
2019-06-26T07:24:29.330Z,25.07
2019-06-26T07:27:18.553Z,25.11
2019-06-26T07:30:08.211Z,25.11
2019-06-26T07:32:57.890Z,25.22
2019-06-26T07:35:46.867Z,25.29
2019-06-26T07:38:37.216Z,25.13
2019-06-26T07:41:26.319Z,25.09
2019-06-26T07:44:15.661Z,25.24
2019-06-26T07:47:12.649Z,25.31
2019-06-26T07:49:56.218Z,25.26
2019-06-26T07:52:45.213Z,25.08
2019-06-26T07:55:34.905Z,24.96
2019-06-26T07:58:24.350Z,24.81
2019-06-26T08:01:14.151Z,24.89
2019-06-26T08:04:03.630Z,24.80
2019-06-26T08:06:52.788Z,24.72
2019-06-26T08:09:42.436Z,24.73
2019-06-26T08:12:31.184Z,24.70
2019-06-26T08:15:20.977Z,24.78
2019-06-26T08:18:10.185Z,24.70
2019-06-26T08:21:11.518Z,24.48
2019-06-26T08:23:49.525Z,24.58
2019-06-26T08:26:38.637Z,24.37
2019-06-26T08:29:27.903Z,24.52
2019-06-26T08:32:17.029Z,24.42
2019-06-26T08:35:06.204Z,24.34
2019-06-26T08:38:09.375Z,24.49
2019-06-26T08:40:46.194Z,24.30
2019-06-26T08:43:35.745Z,24.34
2019-06-26T08:46:24.788Z,24.19
2019-06-26T08:49:24.993Z,23.99
2019-06-26T08:52:05.283Z,24.19
2019-06-26T08:54:54.685Z,24.20
2019-06-26T08:57:44.621Z,23.88
2019-06-26T09:00:33.809Z,23.99
2019-06-26T09:03:22.956Z,23.99
2019-06-26T09:06:12.157Z,24.18
2019-06-26T09:09:01.451Z,24.12
2019-06-26T09:11:50.270Z,23.82
2019-06-26T09:14:39.543Z,24.04
2019-06-26T09:17:28.582Z,23.71
2019-06-26T09:20:28.500Z,23.76
2019-06-26T09:23:18.758Z,23.70
2019-06-26T09:26:07.962Z,23.88
2019-06-26T09:28:57.056Z,23.79
2019-06-26T09:31:46.241Z,23.90
2019-06-26T09:34:35.682Z,24.18
2019-06-26T09:37:24.612Z,23.81
2019-06-26T09:40:14.454Z,23.89
2019-06-26T09:43:04.249Z,23.73
2019-06-26T09:45:54.086Z,23.77
2019-06-26T09:48:52.705Z,23.72
2019-06-26T09:51:34.126Z,23.48
2019-06-26T09:54:23.133Z,23.76
2019-06-26T09:57:12.661Z,23.47
2019-06-26T10:00:02.057Z,23.37
2019-06-26T10:02:51.588Z,23.55
2019-06-26T10:05:42.194Z,23.63
2019-06-26T10:08:31.282Z,23.70
2019-06-26T10:11:20.560Z,23.78
2019-06-26T10:14:09.828Z,23.99
2019-06-26T10:16:58.904Z,23.84
2019-06-26T10:19:48.613Z,23.86
2019-06-26T10:22:38.583Z,23.95
2019-06-26T10:25:27.953Z,23.97
2019-06-26T10:28:17.374Z,24.08
2019-06-26T10:31:06.668Z,23.71
2019-06-26T10:33:56.265Z,24.18
2019-06-26T10:36:45.603Z,24.33
2019-06-26T10:39:35.662Z,24.33
2019-06-26T10:42:25.425Z,24.20
2019-06-26T10:45:14.558Z,24.19
2019-06-26T10:48:04.381Z,24.21
2019-06-26T10:50:58.536Z,23.98
2019-06-26T10:53:44.495Z,24.11
2019-06-26T10:56:33.731Z,24.25
2019-06-26T10:59:23.404Z,24.18
2019-06-26T11:02:16.726Z,23.85
2019-06-26T11:05:04.650Z,24.30
2019-06-26T11:07:53.977Z,24.38
2019-06-26T11:10:43.326Z,24.18
2019-06-26T11:13:33.550Z,23.76
2019-06-26T11:16:22.933Z,24.27
2019-06-26T11:19:12.366Z,24.10
2019-06-26T11:22:02.517Z,24.22
2019-06-26T11:24:52.418Z,24.46
2019-06-26T11:27:41.998Z,24.71
2019-06-26T11:30:30.787Z,24.55
2019-06-26T11:33:20.392Z,24.78
2019-06-26T11:36:09.469Z,24.73
2019-06-26T11:38:59.232Z,24.69
2019-06-26T11:41:48.623Z,24.78
2019-06-26T11:44:37.597Z,24.89
2019-06-26T11:47:26.801Z,24.91
2019-06-26T11:50:16.022Z,24.63
2019-06-26T11:53:05.699Z,24.54
2019-06-26T11:55:55.498Z,24.42
2019-06-26T11:58:45.339Z,24.44
2019-06-26T12:01:34.663Z,24.29
2019-06-26T12:04:24.041Z,24.19
2019-06-26T12:07:13.224Z,24.19
2019-06-26T12:10:03.128Z,24.48
2019-06-26T12:12:52.936Z,24.43
2019-06-26T12:15:42.295Z,24.46
2019-06-26T12:18:32.308Z,24.52
2019-06-26T12:21:21.119Z,24.43
2019-06-26T12:24:10.481Z,24.28
2019-06-26T12:27:00.417Z,24.23
2019-06-26T12:29:49.996Z,24.29
2019-06-26T12:32:42.542Z,24.38
2019-06-26T12:35:30.576Z,24.44
2019-06-26T12:38:25.116Z,24.54
2019-06-26T12:41:14.115Z,24.52
2019-06-26T12:44:03.180Z,24.56
2019-06-26T12:46:51.836Z,24.62
2019-06-26T12:49:41.405Z,24.62
2019-06-26T12:52:30.577Z,24.60
2019-06-26T12:55:22.712Z,24.56
2019-06-26T12:58:14.015Z,24.51
2019-06-26T13:01:02.051Z,24.54
2019-06-26T13:03:51.742Z,24.36
2019-06-26T13:06:41.510Z,24.35
2019-06-26T13:09:30.310Z,24.26
2019-06-26T13:12:19.372Z,24.25
2019-06-26T13:15:08.694Z,24.42
2019-06-26T13:18:01.350Z,24.56
2019-06-26T13:20:53.161Z,24.51
2019-06-26T13:23:40.195Z,24.65
2019-06-26T13:26:29.882Z,24.65
2019-06-26T13:29:19.245Z,24.29
2019-06-26T13:32:08.231Z,24.33
2019-06-26T13:34:57.266Z,24.26
2019-06-26T13:37:46.610Z,24.41
2019-06-26T13:40:35.966Z,24.46
2019-06-26T13:43:24.956Z,24.42
2019-06-26T13:46:16.236Z,24.36
2019-06-26T13:49:05.213Z,24.47
2019-06-26T13:51:54.650Z,24.46
2019-06-26T13:54:44.216Z,24.57
2019-06-26T13:57:33.621Z,24.27
2019-06-26T14:00:22.497Z,24.44
2019-06-26T14:03:11.712Z,24.45
2019-06-26T14:06:00.871Z,24.52
2019-06-26T14:08:50.433Z,24.15
2019-06-26T14:11:40.296Z,24.35
2019-06-26T14:14:52.552Z,24.34
2019-06-26T14:17:21.125Z,24.12
2019-06-26T14:20:10.971Z,24.34
2019-06-26T14:23:00.496Z,24.24
2019-06-26T14:25:49.806Z,24.18
2019-06-26T14:28:39.315Z,24.39
2019-06-26T14:31:29.129Z,24.54
2019-06-26T14:34:18.190Z,24.49
2019-06-26T14:37:07.820Z,24.08
2019-06-26T14:39:57.578Z,24.07
2019-06-26T14:42:46.897Z,24.25
2019-06-26T14:45:39.328Z,24.24
2019-06-26T14:48:28.441Z,24.12
2019-06-26T14:51:18.188Z,24.38
2019-06-26T14:54:06.976Z,24.32
2019-06-26T14:56:56.604Z,24.13
2019-06-26T14:59:45.392Z,24.34
2019-06-26T15:02:34.241Z,24.17
2019-06-26T15:05:23.973Z,24.44
2019-06-26T15:08:13.087Z,24.67
2019-06-26T15:11:02.757Z,24.66
2019-06-26T15:13:51.973Z,24.70
2019-06-26T15:16:40.935Z,24.66
2019-06-26T15:19:30.228Z,24.43
2019-06-26T15:22:19.517Z,24.31
2019-06-26T15:25:09.216Z,24.47
2019-06-26T15:27:58.957Z,24.46
2019-06-26T15:30:48.802Z,24.35
2019-06-26T15:33:38.643Z,24.50
2019-06-26T15:36:27.998Z,24.39
2019-06-26T15:39:17.429Z,24.10
2019-06-26T15:42:06.939Z,24.06
2019-06-26T15:44:58.244Z,24.10
2019-06-26T15:47:48.140Z,24.02
2019-06-26T15:50:37.911Z,23.87
2019-06-26T15:53:26.934Z,23.99
2019-06-26T15:56:16.514Z,24.35
2019-06-26T15:59:05.503Z,24.34
2019-06-26T16:01:54.612Z,24.15
2019-06-26T16:04:44.331Z,24.15
2019-06-26T16:07:33.973Z,24.09
2019-06-26T16:10:23.577Z,24.27
2019-06-26T16:13:13.120Z,24.07
2019-06-26T16:16:02.926Z,24.23
2019-06-26T16:18:57.095Z,24.12
2019-06-26T16:21:46.702Z,24.37
2019-06-26T16:24:36.161Z,24.33
2019-06-26T16:27:24.974Z,24.32
2019-06-26T16:30:14.051Z,23.83
2019-06-26T16:33:03.123Z,24.12
2019-06-26T16:35:51.891Z,24.10
2019-06-26T16:38:41.881Z,23.98
2019-06-26T16:41:31.002Z,24.05
2019-06-26T16:44:20.052Z,23.92
2019-06-26T16:47:09.247Z,23.87
2019-06-26T16:49:57.972Z,23.96
2019-06-26T16:52:49.907Z,24.10
2019-06-26T16:55:39.213Z,23.91
2019-06-26T16:58:28.570Z,23.98
2019-06-26T17:01:17.575Z,23.72
2019-06-26T17:04:06.363Z,24.11
2019-06-26T17:06:55.438Z,24.09
2019-06-26T17:09:44.572Z,23.96
2019-06-26T17:12:34.296Z,24.28
2019-06-26T17:15:23.840Z,24.32
2019-06-26T17:18:13.233Z,24.11
2019-06-26T17:21:02.584Z,23.81
2019-06-26T17:23:51.327Z,23.81
2019-06-26T17:26:40.435Z,23.68
2019-06-26T17:29:30.119Z,23.78
2019-06-26T17:32:19.633Z,23.42
2019-06-26T17:35:09.875Z,23.75
2019-06-26T17:37:59.133Z,23.91
2019-06-26T17:40:48.142Z,23.66
2019-06-26T17:43:38.046Z,23.40
2019-06-26T17:46:27.216Z,23.32
2019-06-26T17:49:16.945Z,23.57
2019-06-26T17:52:06.269Z,23.57
2019-06-26T17:54:55.591Z,23.74
2019-06-26T17:57:47.428Z,23.70
2019-06-26T18:00:36.533Z,23.94
2019-06-26T18:03:25.267Z,23.70
2019-06-26T18:06:14.893Z,23.57
2019-06-26T18:09:03.734Z,23.71
2019-06-26T18:11:53.398Z,23.71
2019-06-26T18:14:43.404Z,23.34
2019-06-26T18:17:33.371Z,23.48
2019-06-26T18:20:22.530Z,23.54
2019-06-26T18:23:11.959Z,23.62
2019-06-26T18:26:12.276Z,23.59
2019-06-26T18:28:51.814Z,23.52
2019-06-26T18:31:41.570Z,23.63
2019-06-26T18:34:30.357Z,23.33
2019-06-26T18:37:19.764Z,23.46
2019-06-26T18:40:09.385Z,23.22
2019-06-26T18:42:58.688Z,23.19
2019-06-26T18:45:48.397Z,23.37
2019-06-26T18:48:38.147Z,23.55
2019-06-26T18:51:27.897Z,23.42
2019-06-26T18:54:17.293Z,23.54
2019-06-26T18:57:06.169Z,23.49
2019-06-26T18:59:54.987Z,23.42
2019-06-26T19:02:44.029Z,23.41
2019-06-26T19:05:33.811Z,23.36
2019-06-26T19:08:23.253Z,23.31
2019-06-26T19:11:13.037Z,23.42
2019-06-26T19:14:02.385Z,23.31
2019-06-26T19:16:52.049Z,23.37
2019-06-26T19:19:41.722Z,23.53
2019-06-26T19:22:31.091Z,23.56
2019-06-26T19:25:19.979Z,23.57
2019-06-26T19:28:11.505Z,23.28
2019-06-26T19:31:00.875Z,22.97
2019-06-26T19:33:49.921Z,23.15
2019-06-26T19:36:49.679Z,23.36
2019-06-26T19:39:29.458Z,23.34
2019-06-26T19:42:19.076Z,23.23
2019-06-26T19:45:09.068Z,23.25
2019-06-26T19:47:59.647Z,23.26
2019-06-26T19:50:49.658Z,23.42
2019-06-26T19:53:39.712Z,23.31
2019-06-26T19:56:29.551Z,23.36
2019-06-26T19:59:19.047Z,23.30
2019-06-26T20:02:08.106Z,23.35
2019-06-26T20:04:57.148Z,23.23
2019-06-26T20:07:47.183Z,23.75
2019-06-26T20:10:36.890Z,23.25
2019-06-26T20:13:26.522Z,23.05
2019-06-26T20:16:16.204Z,23.23
2019-06-26T20:19:04.924Z,23.02
2019-06-26T20:21:54.932Z,23.10
2019-06-26T20:24:44.868Z,23.55
2019-06-26T20:27:34.767Z,23.31
2019-06-26T20:30:29.400Z,23.11
2019-06-26T20:33:18.651Z,23.55
2019-06-26T20:36:08.164Z,23.44
2019-06-26T20:38:57.533Z,23.50
2019-06-26T20:41:46.824Z,23.12
2019-06-26T20:44:35.614Z,23.13
2019-06-26T20:47:24.412Z,23.05
2019-06-26T20:50:14.875Z,22.66
2019-06-26T20:53:04.679Z,22.75
2019-06-26T20:55:53.298Z,22.71
2019-06-26T20:58:42.712Z,22.60
2019-06-26T21:01:31.503Z,22.77
2019-06-26T21:04:20.211Z,22.67
2019-06-26T21:07:10.081Z,22.43
2019-06-26T21:09:59.707Z,22.31
2019-06-26T21:12:49.077Z,22.57
2019-06-26T21:15:37.948Z,22.49
2019-06-26T21:18:27.879Z,22.61
2019-06-26T21:21:17.388Z,22.55
2019-06-26T21:24:06.729Z,22.69
2019-06-26T21:26:56.075Z,22.90
2019-06-26T21:29:45.802Z,22.91
2019-06-26T21:32:35.448Z,23.16
2019-06-26T21:35:24.518Z,22.95
2019-06-26T21:38:13.878Z,23.14
2019-06-26T21:41:03.355Z,23.19
2019-06-26T21:43:52.645Z,23.37
2019-06-26T21:46:41.654Z,22.92
2019-06-26T21:49:30.628Z,23.02
2019-06-26T21:52:19.924Z,23.24
2019-06-26T21:55:09.280Z,22.96
2019-06-26T21:57:58.671Z,22.70
2019-06-26T22:00:48.352Z,22.50
2019-06-26T22:03:37.115Z,22.33
2019-06-26T22:06:26.735Z,22.27
2019-06-26T22:09:16.416Z,22.28
2019-06-26T22:12:06.090Z,22.56
2019-06-26T22:14:55.967Z,22.67
2019-06-26T22:17:45.812Z,22.75
2019-06-26T22:20:35.989Z,22.80
2019-06-26T22:23:25.394Z,22.87
2019-06-26T22:26:14.557Z,22.54
2019-06-26T22:29:03.999Z,22.33
2019-06-26T22:31:53.880Z,22.65
2019-06-26T22:34:43.606Z,22.78
2019-06-26T22:37:33.237Z,22.80
2019-06-26T22:40:22.946Z,22.78
2019-06-26T22:43:11.655Z,22.80
2019-06-26T22:46:00.865Z,22.63
2019-06-26T22:48:50.672Z,22.67
2019-06-26T22:51:40.654Z,22.48
2019-06-26T22:54:30.193Z,22.39
2019-06-26T22:57:19.740Z,22.41
2019-06-26T23:00:09.438Z,22.68
2019-06-26T23:02:58.572Z,22.39
2019-06-26T23:05:48.026Z,22.53
2019-06-26T23:08:37.920Z,22.47
2019-06-26T23:11:27.311Z,22.37
2019-06-26T23:14:16.989Z,22.21
2019-06-26T23:17:06.481Z,22.36
2019-06-26T23:19:55.709Z,22.31
2019-06-26T23:22:44.497Z,22.39
2019-06-26T23:25:33.980Z,22.12
2019-06-26T23:28:23.733Z,22.11
2019-06-26T23:31:13.790Z,22.22
2019-06-26T23:34:03.397Z,22.17
2019-06-26T23:36:52.914Z,22.12
2019-06-26T23:39:42.810Z,22.20
2019-06-26T23:42:32.173Z,22.33
2019-06-26T23:45:20.962Z,22.37
2019-06-26T23:48:10.631Z,22.39
2019-06-26T23:51:00.099Z,22.36
2019-06-26T23:53:49.443Z,22.43
2019-06-26T23:56:40.686Z,22.38
2019-06-26T23:59:29.511Z,22.42
